Time;durP1;ratioP1;P1;durP2;ratioP2;P2;SDS_P1;SDS_P2;PMS_P1;PMS_P2;Temp;Humidity;BMP_temperature;BMP_pressure;BME280_temperature;BME280_humidity;BME280_pressure;Samples;Min_cycle;Max_cycle;Signal;HPM_P1;HPM_P2
2022/09/15 00:00:57;;;;;;;12.33;10.90;;;;;;;14.43;91.20;98677.31;1647676;85;21162;-74
2022/09/15 00:03:23;;;;;;;15.45;12.07;;;;;;;14.40;91.34;98675.10;1620903;87;21243;-74
2022/09/15 00:05:53;;;;;;;12.68;10.35;;;;;;;14.34;91.57;98673.59;1635394;86;21072;-75
2022/09/15 00:08:21;;;;;;;12.98;11.33;;;;;;;14.36;91.58;98682.73;1634725;85;21060;-74
2022/09/15 00:10:59;;;;;;;13.58;12.15;;;;;;;14.40;91.41;98683.92;1650618;85;21074;-74
2022/09/15 00:13:25;;;;;;;13.62;12.23;;;;;;;14.32;91.56;98678.34;1636569;85;21082;-74
2022/09/15 00:15:51;;;;;;;13.95;11.88;;;;;;;14.25;91.72;98678.09;1632838;86;21238;-73
2022/09/15 00:18:18;;;;;;;16.02;12.60;;;;;;;14.25;91.80;98678.09;1645425;85;21068;-73
2022/09/15 00:20:44;;;;;;;13.38;12.07;;;;;;;14.29;91.71;98676.62;1632825;86;21226;-72
2022/09/15 00:23:13;;;;;;;15.55;13.45;;;;;;;14.25;91.91;98674.09;1642703;86;21077;-74
2022/09/15 00:25:48;;;;;;;12.73;11.53;;;;;;;14.18;92.23;98666.14;1609630;87;21573;-75
2022/09/15 00:28:18;;;;;;;13.90;12.60;;;;;;;14.18;92.25;98658.13;1616928;87;21137;-72
2022/09/15 00:30:47;;;;;;;13.53;12.33;;;;;;;14.23;92.17;98661.47;1646027;85;21088;-75
2022/09/15 00:33:14;;;;;;;14.33;13.05;;;;;;;14.15;92.41;98659.88;1650735;86;21082;-74
2022/09/15 00:35:43;;;;;;;13.95;12.47;;;;;;;14.07;92.70;98661.50;1637896;87;21056;-75
2022/09/15 00:38:11;;;;;;;13.58;12.33;;;;;;;14.07;92.84;98670.31;1615502;87;21663;-74
2022/09/15 00:40:49;;;;;;;15.40;13.85;;;;;;;14.12;92.78;98670.50;1633695;86;21101;-70
2022/09/15 00:43:20;;;;;;;15.53;13.95;;;;;;;14.07;93.07;98673.52;1618725;86;21061;-74
2022/09/15 00:45:47;;;;;;;13.85;12.28;;;;;;;14.01;93.39;98670.38;1623853;87;21126;-75
2022/09/15 00:48:18;;;;;;;14.85;13.43;;;;;;;14.01;93.34;98667.70;1615422;87;21615;-75
2022/09/15 00:50:51;;;;;;;16.32;14.68;;;;;;;14.04;93.18;98661.42;1620066;86;21088;-74
2022/09/15 00:53:18;;;;;;;15.80;13.93;;;;;;;14.03;93.46;98658.96;1629905;86;21125;-75
2022/09/15 00:55:47;;;;;;;15.18;13.83;;;;;;;13.99;93.66;98664.44;1628474;86;21066;-74
2022/09/15 00:58:35;;;;;;;15.00;13.65;;;;;;;14.02;93.65;98662.13;1628020;86;21096;-76
2022/09/15 01:01:02;;;;;;;15.08;13.68;;;;;;;14.08;93.41;98656.44;1616225;87;21123;-75
2022/09/15 01:03:32;;;;;;;16.42;14.68;;;;;;;14.06;93.63;98661.19;1618668;87;21127;-75
2022/09/15 01:06:04;;;;;;;14.18;12.88;;;;;;;14.03;93.82;98667.78;1605729;88;21828;-76
2022/09/15 01:08:39;;;;;;;15.80;14.30;;;;;;;14.07;93.67;98661.50;1621604;87;21084;-74
2022/09/15 01:11:07;;;;;;;14.78;13.28;;;;;;;14.08;93.47;98661.28;1632954;86;21097;-74
2022/09/15 01:13:35;;;;;;;15.18;13.78;;;;;;;14.00;94.01;98652.19;1611572;87;21100;-73
2022/09/15 01:16:22;;;;;;;15.00;13.28;;;;;;;13.92;94.24;98661.27;1617617;87;21100;-73
2022/09/15 01:19:11;;;;;;;15.63;14.13;;;;;;;13.94;94.35;98661.06;1614514;87;21345;-73
2022/09/15 01:21:52;;;;;;;14.63;13.28;;;;;;;13.99;94.17;98659.09;1630228;85;21544;-75
2022/09/15 01:24:44;;;;;;;15.98;14.40;;;;;;;13.90;94.64;98646.52;1626785;86;21081;-75
2022/09/15 01:27:22;;;;;;;13.55;12.25;;;;;;;13.81;95.03;98641.97;1611398;86;21089;-73
2022/09/15 01:30:11;;;;;;;15.63;14.23;;;;;;;13.87;95.10;98638.43;1620747;87;21100;-75
2022/09/15 01:33:11;;;;;;;15.48;13.90;;;;;;;13.85;95.18;98631.16;1602190;87;21353;-76
2022/09/15 01:35:57;;;;;;;16.32;14.58;;;;;;;13.77;95.70;98627.39;1633289;86;21143;-74
2022/09/15 01:38:36;;;;;;;15.35;14.03;;;;;;;13.82;95.88;98628.91;1629587;86;21217;-75
2022/09/15 01:41:16;;;;;;;17.48;14.87;;;;;;;13.86;95.71;98626.10;1594533;87;21117;-74
2022/09/15 01:43:54;;;;;;;16.50;14.65;;;;;;;13.79;95.98;98626.69;1638714;86;21072;-74
2022/09/15 01:46:23;;;;;;;15.40;13.60;;;;;;;13.80;96.05;98622.16;1624467;87;21170;-74
2022/09/15 01:48:50;;;;;;;15.43;13.93;;;;;;;13.84;95.90;98622.02;1623304;86;21693;-72
2022/09/15 01:51:16;;;;;;;15.75;14.18;;;;;;;13.76;96.41;98613.23;1610733;87;21108;-74
2022/09/15 01:53:45;;;;;;;15.43;13.25;;;;;;;13.72;96.58;98612.56;1631780;87;21090;-72
2022/09/15 01:56:13;;;;;;;14.90;13.40;;;;;;;13.80;96.29;98613.63;1638416;86;22251;-75
2022/09/15 01:58:40;;;;;;;17.48;15.83;;;;;;;13.81;96.34;98609.94;1632221;86;21289;-76
2022/09/15 02:01:18;;;;;;;14.30;12.90;;;;;;;13.77;96.45;98610.05;1633672;87;21094;-75
2022/09/15 02:03:54;;;;;;;15.55;14.15;;;;;;;13.78;96.55;98609.02;1634083;87;21635;-72
2022/09/15 02:06:32;;;;;;;17.00;15.20;;;;;;;13.84;96.25;98601.48;1636203;86;21107;-75
2022/09/15 02:09:01;;;;;;;17.30;14.00;;;;;;;13.80;96.37;98602.95;1619972;87;21055;-75
2022/09/15 02:11:30;;;;;;;14.93;12.80;;;;;;;13.76;96.62;98604.42;1618510;87;21718;-74
2022/09/15 02:14:16;;;;;;;14.83;13.35;;;;;;;13.83;96.46;98599.86;1637433;87;21119;-75
2022/09/15 02:16:45;;;;;;;17.12;15.32;;;;;;;13.85;96.24;98603.63;1626651;87;21060;-75
2022/09/15 02:19:16;;;;;;;15.03;13.55;;;;;;;13.76;96.53;98606.56;1634687;86;21155;-76
2022/09/15 02:22:16;;;;;;;15.53;14.03;;;;;;;13.79;96.47;98613.84;1620761;87;21051;-72
2022/09/15 02:24:57;;;;;;;16.20;14.60;;;;;;;13.84;96.35;98608.16;1620176;87;22397;-74
2022/09/15 02:27:26;;;;;;;15.28;13.90;;;;;;;13.81;96.48;98609.09;1636189;86;21560;-75
2022/09/15 02:31:27;;;;;;;15.75;13.85;;;;;;;13.87;96.56;98606.89;1834183;77;28109;-73
2022/09/15 02:33:59;;;;;;;16.85;15.15;;;;;;;13.84;96.41;98606.81;1791782;78;20970;-74
2022/09/15 02:36:25;;;;;;;14.95;13.35;;;;;;;13.79;96.52;98602.67;1785890;79;21239;-75
2022/09/15 02:38:57;;;;;;;16.02;14.53;;;;;;;13.84;96.49;98604.15;1773384;80;21008;-75
2022/09/15 02:41:24;;;;;;;16.93;15.15;;;;;;;13.92;96.31;98611.88;1780261;79;21470;-75
2022/09/15 02:43:50;;;;;;;15.88;14.35;;;;;;;13.90;96.26;98607.28;1792309;80;21026;-74
2022/09/15 02:46:19;;;;;;;17.12;13.53;;;;;;;13.83;96.29;98605.70;1790961;80;20998;-74
2022/09/15 02:48:46;;;;;;;14.70;13.32;;;;;;;13.89;96.14;98606.99;1775948;80;21237;-73
2022/09/15 02:51:13;;;;;;;15.65;14.18;;;;;;;13.94;95.94;98607.67;1788821;80;21046;-74
2022/09/15 02:53:39;;;;;;;14.83;13.32;;;;;;;13.91;96.05;98600.11;1761436;79;20954;-74
2022/09/15 02:56:06;;;;;;;14.40;12.98;;;;;;;13.87;96.18;98600.22;1771414;80;21553;-74
2022/09/15 02:58:33;;;;;;;14.03;12.73;;;;;;;13.91;96.06;98596.91;1791547;79;21151;-74
2022/09/15 03:01:05;;;;;;;13.62;12.43;;;;;;;13.96;95.88;98591.75;1782193;80;21775;-74
2022/09/15 03:03:32;;;;;;;17.10;13.80;;;;;;;13.95;95.99;98590.10;1762590;80;21978;-75
2022/09/15 03:06:15;;;;;;;14.10;12.60;;;;;;;13.92;96.02;98585.71;1795302;79;21025;-72
2022/09/15 03:08:27;;;;;;;14.23;12.75;;;;;;;13.95;95.97;98578.61;1786641;79;20994;-73
2022/09/15 03:10:56;;;;;;;14.95;13.53;;;;;;;14.03;95.67;98583.67;1766907;80;21021;-73
2022/09/15 03:13:24;;;;;;;15.75;14.15;;;;;;;14.00;95.66;98577.95;1766365;80;21893;-73
2022/09/15 03:15:50;;;;;;;13.48;12.25;;;;;;;13.96;95.79;98580.23;1778911;80;21076;-74
2022/09/15 03:18:17;;;;;;;14.95;13.03;;;;;;;14.01;95.71;98570.25;1776580;78;21521;-72
2022/09/15 03:20:43;;;;;;;15.55;14.03;;;;;;;14.10;95.34;98562.23;1790695;79;21499;-73
2022/09/15 03:23:12;;;;;;;15.23;13.83;;;;;;;14.08;95.20;98553.63;1788357;80;21052;-75
2022/09/15 03:25:39;;;;;;;14.18;12.75;;;;;;;14.04;95.47;98555.95;1784091;80;21228;-75
2022/09/15 03:28:05;;;;;;;13.08;11.88;;;;;;;14.09;95.37;98559.28;1776046;80;21025;-72
2022/09/15 03:30:33;;;;;;;14.98;13.43;;;;;;;14.15;94.94;98564.55;1789621;79;21522;-72
2022/09/15 03:32:59;;;;;;;16.17;14.60;;;;;;;14.14;95.01;98564.27;1778031;78;21500;-73
2022/09/15 03:35:26;;;;;;;14.10;12.68;;;;;;;14.08;94.83;98558.47;1762334;79;21065;-73
2022/09/15 03:37:53;;;;;;;14.23;12.82;;;;;;;14.09;94.87;98548.59;1785171;80;21102;-73
2022/09/15 03:40:19;;;;;;;14.53;13.13;;;;;;;14.16;94.60;98539.48;1790686;80;21006;-73
2022/09/15 03:42:46;;;;;;;15.05;13.65;;;;;;;14.14;94.72;98534.88;1771237;80;21107;-74
2022/09/15 03:45:12;;;;;;;14.58;13.08;;;;;;;14.12;94.84;98546.83;1790636;79;21113;-73
2022/09/15 03:47:39;;;;;;;14.78;13.28;;;;;;;14.16;94.72;98548.02;1781337;78;21520;-73
2022/09/15 03:50:06;;;;;;;13.85;12.55;;;;;;;14.25;94.42;98549.34;1783492;80;21074;-73
2022/09/15 03:52:33;;;;;;;14.63;12.85;;;;;;;14.24;94.61;98551.73;1787498;80;21032;-75
2022/09/15 03:54:59;;;;;;;13.03;11.73;;;;;;;14.25;94.67;98545.34;1789176;80;21022;-76
2022/09/15 03:57:26;;;;;;;13.90;12.50;;;;;;;14.31;94.61;98538.30;1761423;80;21337;-76
2022/09/15 03:59:52;;;;;;;13.85;12.05;;;;;;;14.42;94.25;98544.77;1785335;79;21033;-73
2022/09/15 04:02:18;;;;;;;14.15;12.88;;;;;;;14.45;94.24;98547.02;1765042;79;21102;-74
2022/09/15 04:04:45;;;;;;;12.28;11.08;;;;;;;14.43;93.91;98552.58;1773942;80;21056;-73
2022/09/15 04:07:11;;;;;;;13.00;11.80;;;;;;;14.44;93.58;98552.05;1770763;80;21049;-74
2022/09/15 04:09:38;;;;;;;12.68;11.48;;;;;;;14.46;93.40;98549.97;1783436;80;21136;-73
2022/09/15 04:12:05;;;;;;;13.48;11.70;;;;;;;14.40;93.51;98555.68;1784770;78;21056;-74
2022/09/15 04:14:32;;;;;;;14.35;12.03;;;;;;;14.31;93.75;98558.34;1786487;78;21206;-73
2022/09/15 04:16:58;;;;;;;12.43;11.12;;;;;;;14.30;93.90;98552.19;1789151;78;21050;-73
2022/09/15 04:19:25;;;;;;;13.10;11.50;;;;;;;14.35;93.83;98544.83;1763348;80;21044;-73
2022/09/15 04:21:52;;;;;;;14.75;13.32;;;;;;;14.32;93.96;98546.10;1752642;78;21061;-74
2022/09/15 04:24:18;;;;;;;14.03;12.68;;;;;;;14.27;94.24;98551.28;1777950;79;21008;-74
2022/09/15 04:26:45;;;;;;;12.85;11.25;;;;;;;14.30;94.18;98565.54;1773736;79;21108;-74
2022/09/15 04:29:14;;;;;;;11.30;10.10;;;;;;;14.36;93.87;98571.33;1778744;80;21077;-74
2022/09/15 04:31:41;;;;;;;13.43;12.13;;;;;;;14.36;93.92;98581.20;1777051;78;21068;-75
2022/09/15 04:34:09;;;;;;;12.13;11.00;;;;;;;14.27;94.18;98561.96;1757825;80;21041;-74
2022/09/15 04:36:35;;;;;;;13.13;11.40;;;;;;;14.30;94.33;98560.73;1786228;80;21057;-74
2022/09/15 04:39:02;;;;;;;13.78;12.35;;;;;;;14.39;94.26;98561.23;1791366;80;21048;-74
2022/09/15 04:41:30;;;;;;;13.18;11.88;;;;;;;14.39;94.22;98562.08;1791198;80;21069;-74
2022/09/15 04:43:59;;;;;;;12.20;11.00;;;;;;;14.36;94.22;98561.17;1779517;80;21100;-74
2022/09/15 04:46:25;;;;;;;12.20;11.05;;;;;;;14.39;94.03;98556.73;1774665;78;21064;-75
2022/09/15 04:48:52;;;;;;;15.72;13.75;;;;;;;14.45;93.87;98535.80;1768299;78;21060;-73
2022/09/15 04:51:20;;;;;;;14.23;12.85;;;;;;;14.44;94.00;98517.31;1779897;79;21422;-74
2022/09/15 04:53:47;;;;;;;13.43;12.13;;;;;;;14.43;94.17;98522.34;1781762;80;21064;-73
2022/09/15 04:56:16;;;;;;;13.20;11.55;;;;;;;14.49;93.99;98530.83;1788861;80;21014;-73
2022/09/15 04:58:47;;;;;;;14.73;12.30;;;;;;;14.58;93.62;98528.69;1790256;80;21045;-73
2022/09/15 05:01:23;;;;;;;16.42;13.75;;;;;;;14.57;93.66;98530.55;1780327;78;21598;-74
2022/09/15 05:03:50;;;;;;;13.10;11.90;;;;;;;14.52;93.82;98528.50;1791428;79;21076;-76
2022/09/15 05:06:19;;;;;;;12.28;11.03;;;;;;;14.58;93.73;98527.35;1788019;79;21049;-75
2022/09/15 05:08:49;;;;;;;13.80;12.23;;;;;;;14.68;93.52;98531.64;1791526;79;21057;-74
2022/09/15 05:11:16;;;;;;;19.90;16.15;;;;;;;14.66;93.54;98527.88;1783060;79;21014;-73
2022/09/15 05:13:43;;;;;;;12.98;11.78;;;;;;;14.62;93.64;98528.53;1790524;78;20966;-75
2022/09/15 05:16:19;;;;;;;13.28;11.50;;;;;;;14.65;93.63;98525.42;1790679;80;21089;-73
2022/09/15 05:18:47;;;;;;;13.53;12.23;;;;;;;14.71;93.42;98517.31;1778078;80;21060;-74
2022/09/15 05:21:15;;;;;;;14.50;13.15;;;;;;;14.71;93.40;98514.64;1788504;80;21065;-74
2022/09/15 05:23:42;;;;;;;12.50;11.15;;;;;;;14.69;93.51;98506.56;1774971;80;21572;-74
2022/09/15 05:26:13;;;;;;;13.58;11.00;;;;;;;14.74;93.39;98502.17;1774810;78;21039;-75
2022/09/15 05:28:41;;;;;;;13.32;11.80;;;;;;;14.84;93.22;98500.83;1772439;80;21009;-75
2022/09/15 05:31:12;;;;;;;13.75;12.20;;;;;;;14.81;93.26;98503.41;1768587;78;21009;-75
2022/09/15 05:33:38;;;;;;;15.78;11.88;;;;;;;14.77;93.45;98494.74;1793921;79;21017;-73
2022/09/15 05:36:06;;;;;;;12.85;11.55;;;;;;;14.80;93.42;98487.62;1772751;79;21021;-75
2022/09/15 05:38:32;;;;;;;16.87;12.88;;;;;;;14.89;93.43;98503.12;1781164;79;21017;-75
2022/09/15 05:41:05;;;;;;;14.00;12.68;;;;;;;14.89;93.38;98508.47;1796904;78;21114;-74
2022/09/15 05:43:32;;;;;;;13.38;12.05;;;;;;;14.86;93.52;98506.77;1791719;79;21005;-74
2022/09/15 05:46:01;;;;;;;14.30;12.20;;;;;;;14.91;93.45;98510.89;1786178;78;21096;-75
2022/09/15 05:48:27;;;;;;;13.20;11.85;;;;;;;15.00;92.89;98505.53;1797276;79;21498;-73
2022/09/15 05:50:54;;;;;;;14.68;11.12;;;;;;;15.00;92.99;98505.53;1793142;79;21009;-74
2022/09/15 05:53:21;;;;;;;15.03;13.22;;;;;;;14.97;93.01;98503.83;1783976;79;21104;-73
2022/09/15 05:55:47;;;;;;;12.63;11.35;;;;;;;15.01;92.92;98511.19;1795704;79;21116;-73
2022/09/15 05:58:14;;;;;;;16.20;13.08;;;;;;;15.08;92.56;98507.87;1792411;79;21073;-75
2022/09/15 06:00:41;;;;;;;13.30;11.88;;;;;;;15.04;92.73;98516.06;1786703;78;21070;-76
2022/09/15 06:03:12;;;;;;;12.85;10.95;;;;;;;15.01;92.71;98530.41;1787475;78;22001;-77
2022/09/15 06:05:40;;;;;;;16.02;11.83;;;;;;;15.06;92.83;98526.02;1776649;78;21148;-78
2022/09/15 06:08:06;;;;;;;15.08;11.75;;;;;;;15.06;92.69;98542.59;1787519;79;21009;-78
2022/09/15 06:10:33;;;;;;;11.60;10.43;;;;;;;15.00;92.93;98535.47;1786000;79;21505;-77
2022/09/15 06:13:00;;;;;;;16.67;11.78;;;;;;;15.04;93.03;98534.78;1792656;79;21065;-78
2022/09/15 06:15:29;;;;;;;23.22;13.00;;;;;;;15.11;92.81;98526.16;1773741;79;21026;-78
2022/09/15 06:17:56;;;;;;;14.98;13.05;;;;;;;15.12;92.80;98530.98;1794758;78;22223;-76
2022/09/15 06:20:29;;;;;;;14.53;11.78;;;;;;;15.08;92.98;98521.25;1785729;79;21009;-76
2022/09/15 06:22:57;;;;;;;14.45;11.70;;;;;;;15.13;92.85;98528.08;1781460;79;21419;-76
2022/09/15 06:25:24;;;;;;;16.20;11.48;;;;;;;15.24;92.39;98525.66;1785362;79;21620;-78
2022/09/15 06:27:51;;;;;;;13.60;12.10;;;;;;;15.23;92.20;98520.84;1775732;79;21017;-77
2022/09/15 06:30:17;;;;;;;14.60;10.93;;;;;;;15.21;92.31;98517.58;1784473;78;21306;-77
2022/09/15 06:32:44;;;;;;;19.07;12.55;;;;;;;15.25;92.32;98506.71;1791292;79;21037;-76
2022/09/15 06:35:10;;;;;;;14.00;12.55;;;;;;;15.33;92.07;98506.91;1788531;79;21076;-76
2022/09/15 06:37:37;;;;;;;17.45;12.47;;;;;;;15.34;91.96;98513.91;1774371;79;21112;-77
2022/09/15 06:40:06;;;;;;;16.50;11.97;;;;;;;15.34;92.15;98506.69;1797582;79;21083;-77
2022/09/15 06:42:33;;;;;;;18.42;12.90;;;;;;;15.43;92.03;98497.81;1783047;79;21137;-77
2022/09/15 06:45:00;;;;;;;14.90;13.35;;;;;;;15.58;91.75;98500.03;1789527;78;20993;-77
2022/09/15 06:47:32;;;;;;;16.27;12.47;;;;;;;15.60;91.53;98497.13;1790744;79;21043;-78
2022/09/15 06:49:54;;;;;;;17.30;12.10;;;;;;;15.59;91.35;98490.97;1794141;79;21034;-76
2022/09/15 06:52:20;;;;;;;16.60;13.35;;;;;;;15.61;91.25;98482.72;1788052;79;21075;-75
2022/09/15 06:54:48;;;;;;;16.85;12.13;;;;;;;15.73;91.17;98486.23;1788396;79;21179;-75
2022/09/15 06:57:15;;;;;;;13.53;12.25;;;;;;;15.76;90.99;98493.81;1787685;79;21038;-75
2022/09/15 06:59:44;;;;;;;18.82;12.23;;;;;;;15.75;90.77;98493.51;1786893;78;20998;-77
2022/09/15 07:02:11;;;;;;;18.95;12.55;;;;;;;15.78;90.57;98495.73;1786718;78;21029;-75
2022/09/15 07:04:38;;;;;;;16.80;13.32;;;;;;;15.86;90.55;98499.40;1791856;79;21518;-76
2022/09/15 07:07:05;;;;;;;14.35;12.75;;;;;;;15.84;90.81;98494.80;1792507;79;21827;-78
2022/09/15 07:09:31;;;;;;;15.63;11.95;;;;;;;15.82;91.08;98492.87;1789976;79;20962;-78
2022/09/15 07:11:59;;;;;;;16.12;14.45;;;;;;;15.89;90.92;98490.08;1795748;78;21533;-76
2022/09/15 07:14:26;;;;;;;19.60;13.53;;;;;;;16.01;91.42;98489.56;1783371;79;21509;-78
2022/09/15 07:16:52;;;;;;;18.57;13.85;;;;;;;16.08;91.00;98490.77;1773032;79;21040;-77
2022/09/15 07:19:19;;;;;;;16.23;13.93;;;;;;;16.10;91.18;98490.81;1787579;79;22173;-78
2022/09/15 07:21:46;;;;;;;22.85;14.78;;;;;;;16.25;91.00;98482.83;1785546;79;21029;-76
2022/09/15 07:24:13;;;;;;;18.17;14.05;;;;;;;16.45;90.76;98484.58;1779319;79;21092;-77
2022/09/15 07:26:40;;;;;;;17.37;15.58;;;;;;;16.55;89.51;98485.31;1793195;78;21085;-76
2022/09/15 07:29:08;;;;;;;20.85;14.78;;;;;;;16.55;89.66;98483.16;1790203;78;21032;-76
2022/09/15 07:31:36;;;;;;;20.97;15.78;;;;;;;16.66;89.92;98483.66;1784686;78;21235;-77
2022/09/15 07:34:03;;;;;;;22.17;14.50;;;;;;;16.85;89.07;98484.33;1775018;79;21471;-77
2022/09/15 07:36:30;;;;;;;18.27;15.28;;;;;;;16.88;88.60;98486.51;1769842;80;21025;-76
2022/09/15 07:38:56;;;;;;;16.37;13.78;;;;;;;16.87;88.45;98481.68;1777789;78;21026;-76
2022/09/15 07:41:26;;;;;;;13.43;11.85;;;;;;;16.86;87.97;98479.23;1781531;79;21565;-75
2022/09/15 07:43:55;;;;;;;20.25;12.40;;;;;;;16.90;87.48;98488.42;1779674;79;22521;-84
2022/09/15 07:46:23;;;;;;;20.55;12.58;;;;;;;16.93;87.41;98480.44;1756808;80;21001;-84
2022/09/15 07:48:51;;;;;;;16.60;13.28;;;;;;;16.90;87.58;98471.82;1783325;78;21183;-76
2022/09/15 07:51:18;;;;;;;18.15;12.05;;;;;;;16.86;87.44;98467.16;1779801;78;21041;-76
2022/09/15 07:53:46;;;;;;;14.15;11.43;;;;;;;16.91;87.83;98471.28;1786984;79;21076;-78
2022/09/15 07:56:12;;;;;;;16.80;11.18;;;;;;;17.02;86.96;98469.08;1789074;78;21040;-76
2022/09/15 07:58:40;;;;;;;15.23;12.15;;;;;;;16.99;86.74;98470.89;1784524;79;21091;-75
2022/09/15 08:01:10;;;;;;;12.30;11.00;;;;;;;16.95;86.79;98467.06;1778102;78;21526;-76
2022/09/15 08:03:44;;;;;;;13.68;11.40;;;;;;;16.95;86.96;98464.38;1775076;80;21045;-76
2022/09/15 08:06:10;;;;;;;14.80;12.03;;;;;;;17.06;86.74;98468.08;1790354;79;21073;-75
2022/09/15 08:08:38;;;;;;;15.13;13.60;;;;;;;17.07;87.04;98462.48;1781860;79;21239;-75
2022/09/15 08:11:08;;;;;;;16.97;13.18;;;;;;;17.10;87.47;98466.53;1762621;79;21011;-76
2022/09/15 08:13:34;;;;;;;15.10;10.55;;;;;;;17.13;87.53;98465.23;1783250;80;21014;-75
2022/09/15 08:16:08;;;;;;;17.52;12.45;;;;;;;17.22;87.04;98469.95;1787691;79;21589;-74
2022/09/15 08:18:35;;;;;;;15.20;12.30;;;;;;;17.27;86.41;98470.05;1791004;79;21042;-74
2022/09/15 08:21:05;;;;;;;19.30;11.97;;;;;;;17.21;86.17;98463.48;1783672;79;21085;-77
2022/09/15 08:23:32;;;;;;;14.68;12.70;;;;;;;17.11;86.64;98464.13;1783607;78;21052;-76
2022/09/15 08:25:59;;;;;;;16.23;11.97;;;;;;;17.05;87.24;98461.07;1788521;79;21002;-75
2022/09/15 08:28:25;;;;;;;15.60;11.43;;;;;;;17.12;87.21;98463.08;1790208;80;21026;-75
2022/09/15 08:31:04;;;;;;;14.07;11.97;;;;;;;17.24;86.92;98459.79;1780923;79;21517;-75
2022/09/15 08:33:32;;;;;;;12.93;11.60;;;;;;;17.20;86.86;98457.84;1789760;80;22333;-77
2022/09/15 08:36:09;;;;;;;13.05;10.10;;;;;;;17.16;87.03;98462.08;1782306;78;21933;-76
2022/09/15 08:38:37;;;;;;;16.27;11.22;;;;;;;17.17;85.89;98463.18;1784456;78;21029;-75
2022/09/15 08:41:29;;;;;;;13.53;11.20;;;;;;;17.16;85.89;98462.08;1756357;80;21084;-77
2022/09/15 08:44:18;;;;;;;13.55;10.40;;;;;;;17.07;85.67;98458.45;1776059;79;21186;-75
2022/09/15 08:47:26;;;;;;;11.22;9.35;;;;;;;16.97;86.43;98455.56;1773450;80;20994;-82
2022/09/15 08:50:14;;;;;;;14.70;11.83;;;;;;;17.01;86.37;98452.69;1773602;80;21100;-83
2022/09/15 08:52:54;;;;;;;13.85;11.38;;;;;;;16.99;86.23;98452.11;1786707;79;21502;-82
2022/09/15 08:55:41;;;;;;;17.05;11.33;;;;;;;16.93;86.60;98454.95;1779049;78;21596;-82
2022/09/15 08:58:33;;;;;;;12.55;10.95;;;;;;;16.94;86.99;98455.23;1772728;80;21639;-75
2022/09/15 09:01:23;;;;;;;14.85;12.15;;;;;;;16.98;87.14;98455.03;1777181;80;21796;-77
2022/09/15 09:04:30;;;;;;;12.58;11.22;;;;;;;16.92;87.22;98459.52;1780621;80;21029;-76
2022/09/15 09:07:46;;;;;;;14.43;11.15;;;;;;;16.88;87.72;98459.18;1785720;78;21040;-77
2022/09/15 09:10:21;;;;;;;14.18;10.20;;;;;;;17.00;87.28;98455.09;1790129;78;21091;-78
2022/09/15 09:13:10;;;;;;;11.63;10.53;;;;;;;16.99;87.36;98449.43;1779127;80;21217;-77
2022/09/15 09:15:59;;;;;;;13.48;10.43;;;;;;;16.96;87.23;98445.07;1783759;78;21469;-79
2022/09/15 09:18:34;;;;;;;11.78;10.58;;;;;;;17.05;87.25;98438.27;1791414;80;21581;-79
2022/09/15 09:21:25;;;;;;;11.03;9.90;;;;;;;17.15;87.06;98439.77;1780465;79;21108;-77
2022/09/15 09:24:05;;;;;;;11.75;10.25;;;;;;;17.13;86.73;98441.08;1783700;78;21060;-79
2022/09/15 09:26:35;;;;;;;13.48;10.35;;;;;;;17.09;86.84;98443.42;1783458;78;21092;-76
2022/09/15 09:29:11;;;;;;;13.58;10.85;;;;;;;17.17;86.82;98444.39;1759612;80;22373;-79
2022/09/15 09:31:38;;;;;;;11.63;10.10;;;;;;;17.17;86.69;98435.51;1779622;78;21568;-78
2022/09/15 09:34:37;;;;;;;12.82;10.90;;;;;;;17.12;86.94;98446.98;1687832;81;21013;-78
2022/09/15 09:37:10;;;;;;;10.78;9.68;;;;;;;17.09;87.05;98444.77;1730507;82;21005;-78
2022/09/15 09:39:37;;;;;;;14.68;11.20;;;;;;;17.16;87.34;98433.89;1715398;82;21009;-80
2022/09/15 09:42:04;;;;;;;12.45;10.98;;;;;;;17.12;87.73;98426.05;1750539;80;21744;-80
2022/09/15 09:44:32;;;;;;;13.93;10.80;;;;;;;17.12;87.99;98429.54;1750854;80;21076;-82
2022/09/15 09:47:02;;;;;;;12.60;11.22;;;;;;;17.22;87.77;98442.31;1753418;81;21045;-81
2022/09/15 09:49:33;;;;;;;12.23;10.38;;;;;;;17.34;87.34;98429.62;1725893;81;21541;-79
2022/09/15 09:52:04;;;;;;;12.63;11.33;;;;;;;17.39;87.28;98447.16;1723411;81;21002;-81
2022/09/15 09:54:32;;;;;;;11.68;9.93;;;;;;;17.42;87.36;98438.63;1745826;81;21504;-79
2022/09/15 09:57:23;;;;;;;13.25;10.35;;;;;;;17.61;87.06;98443.19;1739181;82;21073;-78
2022/09/15 09:59:50;;;;;;;10.58;9.55;;;;;;;17.71;86.73;98439.84;1729713;81;21054;-79
2022/09/15 10:02:23;;;;;;;10.80;9.10;;;;;;;17.78;86.11;98450.43;1735387;81;21038;-78
2022/09/15 10:04:56;;;;;;;10.53;9.33;;;;;;;17.83;85.38;98462.06;1740327;81;21078;-76
2022/09/15 10:07:26;;;;;;;10.55;8.83;;;;;;;17.94;84.88;98464.92;1735162;81;21267;-76
2022/09/15 10:09:56;;;;;;;10.45;9.38;;;;;;;17.99;84.46;98460.44;1738987;81;21493;-74
2022/09/15 10:12:38;;;;;;;9.20;8.30;;;;;;;17.98;83.68;98455.30;1735587;81;21510;-73
2022/09/15 10:15:21;;;;;;;8.93;8.00;;;;;;;17.94;83.70;98468.41;1736154;82;21068;-77
2022/09/15 10:17:48;;;;;;;9.20;8.35;;;;;;;17.95;83.80;98458.50;1731297;82;21053;-77
2022/09/15 10:20:34;;;;;;;9.90;8.90;;;;;;;17.98;84.11;98448.08;1737971;80;21319;-74
2022/09/15 10:23:21;;;;;;;9.58;8.68;;;;;;;17.97;84.17;98457.18;1735957;81;21518;-72
2022/09/15 10:25:48;;;;;;;11.00;8.73;;;;;;;17.99;84.00;98447.00;1733502;81;21053;-74
2022/09/15 10:28:17;;;;;;;8.55;7.67;;;;;;;18.09;84.01;98443.63;1730138;81;21168;-76
2022/09/15 10:31:14;;;;;;;8.93;8.03;;;;;;;18.20;83.52;98448.63;1737160;81;21076;-75
2022/09/15 10:33:43;;;;;;;8.80;7.92;;;;;;;18.18;83.40;98450.20;1733282;81;21157;-77
2022/09/15 10:36:29;;;;;;;7.60;6.83;;;;;;;18.17;83.01;98447.23;1740620;81;21135;-75
2022/09/15 10:39:20;;;;;;;9.03;7.37;;;;;;;18.27;82.99;98436.63;1735082;82;21094;-76
2022/09/15 10:41:56;;;;;;;8.65;7.35;;;;;;;18.38;83.28;98433.51;1742194;81;21053;-76
2022/09/15 10:44:54;;;;;;;8.15;7.17;;;;;;;18.43;82.55;98421.48;1718514;82;21195;-74
2022/09/15 10:48:12;;;;;;;8.10;6.45;;;;;;;18.46;82.10;98430.37;1696660;82;21263;-75
2022/09/15 10:50:50;;;;;;;10.05;7.70;;;;;;;18.54;80.99;98427.77;1745055;82;21003;-76
2022/09/15 10:54:03;;;;;;;11.12;8.10;;;;;;;18.55;81.26;98423.22;1734224;80;21137;-76
2022/09/15 10:56:34;;;;;;;9.03;7.42;;;;;;;18.54;81.95;98421.05;1729754;81;21096;-76
2022/09/15 10:59:26;;;;;;;7.87;7.00;;;;;;;18.51;81.06;98435.02;1730265;80;21061;-77
2022/09/15 11:02:11;;;;;;;9.33;6.53;;;;;;;18.52;80.60;98427.20;1730475;80;21094;-78
2022/09/15 11:05:03;;;;;;;9.18;6.47;;;;;;;18.57;80.74;98422.44;1731741;81;21033;-78
2022/09/15 11:07:39;;;;;;;8.20;6.83;;;;;;;18.53;80.85;98410.02;1737120;81;21022;-77
2022/09/15 11:10:14;;;;;;;6.95;6.30;;;;;;;18.52;80.33;98418.34;1735841;81;20987;-79
2022/09/15 11:13:12;;;;;;;7.53;6.40;;;;;;;18.54;80.50;98418.89;1737561;81;21051;-77
2022/09/15 11:16:00;;;;;;;8.68;7.10;;;;;;;18.56;80.38;98413.56;1728354;81;21849;-79
2022/09/15 11:19:21;;;;;;;8.08;6.90;;;;;;;18.51;80.75;98416.73;1725562;81;21069;-79
2022/09/15 11:22:08;;;;;;;7.90;6.47;;;;;;;18.43;80.15;98409.92;1730552;82;21029;-76
2022/09/15 11:24:49;;;;;;;9.95;6.83;;;;;;;18.40;80.16;98409.06;1727566;81;21069;-77
2022/09/15 11:27:39;;;;;;;7.70;6.90;;;;;;;18.39;79.46;98409.61;1736331;81;21081;-73
2022/09/15 11:30:17;;;;;;;8.23;6.28;;;;;;;18.33;80.19;98414.65;1725759;81;21303;-73
2022/09/15 11:33:14;;;;;;;10.95;7.65;;;;;;;18.28;80.87;98404.63;1731581;80;21577;-74
2022/09/15 11:35:53;;;;;;;7.37;5.95;;;;;;;18.35;80.99;98402.28;1753990;80;21032;-73
2022/09/15 11:38:34;;;;;;;10.63;6.78;;;;;;;18.46;80.62;98399.45;1735253;80;21069;-74
2022/09/15 11:41:09;;;;;;;9.98;7.40;;;;;;;18.49;80.33;98391.42;1728903;82;21076;-74
2022/09/15 11:44:21;;;;;;;9.75;6.83;;;;;;;18.50;80.49;98391.69;1733182;82;21784;-75
2022/09/15 11:47:06;;;;;;;9.35;7.08;;;;;;;18.52;80.42;98388.22;1724349;81;22232;-72